createdAt,value
2018-05-08T00:00:16.024Z,59.16
2018-05-08T00:02:44.380Z,59.28
2018-05-08T00:05:12.690Z,59.36
2018-05-08T00:07:40.985Z,59.41
2018-05-08T00:10:09.311Z,59.52
2018-05-08T00:12:37.652Z,59.51
2018-05-08T00:15:05.950Z,59.50
2018-05-08T00:17:34.283Z,59.53
2018-05-08T00:20:02.595Z,59.63
2018-05-08T00:22:30.887Z,59.77
2018-05-08T00:24:59.649Z,59.87
2018-05-08T00:27:27.951Z,59.84
2018-05-08T00:29:56.270Z,59.77
2018-05-08T00:32:24.643Z,59.79
2018-05-08T00:34:52.951Z,59.50
2018-05-08T00:37:21.281Z,59.60
2018-05-08T00:39:49.655Z,59.62
2018-05-08T00:42:17.998Z,59.82
2018-05-08T00:44:46.540Z,59.74
2018-05-08T00:47:14.932Z,59.49
2018-05-08T00:49:43.251Z,59.65
2018-05-08T00:52:11.541Z,59.43
2018-05-08T00:54:52.030Z,59.44
2018-05-08T00:57:20.380Z,59.36
2018-05-08T00:59:48.821Z,59.16
2018-05-08T01:02:17.950Z,59.20
2018-05-08T01:04:46.373Z,59.45
2018-05-08T01:07:14.924Z,59.30
2018-05-08T01:09:43.461Z,58.98
2018-05-08T01:12:11.777Z,59.09
2018-05-08T01:14:40.080Z,58.90
2018-05-08T01:17:08.443Z,59.02
2018-05-08T01:19:36.739Z,58.90
2018-05-08T01:22:05.198Z,58.77
2018-05-08T01:24:33.781Z,58.88
2018-05-08T01:27:02.081Z,58.71
2018-05-08T01:29:30.396Z,58.65
2018-05-08T01:31:58.740Z,58.63
2018-05-08T01:34:27.087Z,58.65
2018-05-08T01:36:55.393Z,58.53
2018-05-08T01:39:23.757Z,58.61
2018-05-08T01:41:52.094Z,58.51
2018-05-08T01:44:20.428Z,58.65
2018-05-08T01:46:48.997Z,58.26
2018-05-08T01:49:18.511Z,58.30
2018-05-08T01:51:46.853Z,58.20
2018-05-08T01:54:15.195Z,58.20
2018-05-08T01:56:43.516Z,58.03
2018-05-08T01:59:11.822Z,58.18
2018-05-08T02:01:40.550Z,58.19
2018-05-08T02:04:08.856Z,58.18
2018-05-08T02:06:37.145Z,58.27
2018-05-08T02:09:05.518Z,58.19
2018-05-08T02:11:33.819Z,58.18
2018-05-08T02:14:02.164Z,58.46
2018-05-08T02:16:30.767Z,58.47
2018-05-08T02:18:59.068Z,58.45
2018-05-08T02:21:27.451Z,58.50
2018-05-08T02:23:55.787Z,58.44
2018-05-08T02:26:24.093Z,58.36
2018-05-08T02:28:52.407Z,58.24
2018-05-08T02:31:20.753Z,58.46
2018-05-08T02:33:49.118Z,58.70
2018-05-08T02:36:17.414Z,58.89
2018-05-08T02:38:45.868Z,58.99
2018-05-08T02:41:14.174Z,58.91
2018-05-08T02:43:43.349Z,59.06
2018-05-08T02:46:11.712Z,59.15
2018-05-08T02:48:40.018Z,59.17
2018-05-08T02:51:08.296Z,59.16
2018-05-08T02:53:36.656Z,59.31
2018-05-08T02:56:04.954Z,59.41
2018-05-08T02:58:33.273Z,59.29
2018-05-08T03:01:01.693Z,59.35
2018-05-08T03:03:30.785Z,59.29
2018-05-08T03:05:59.082Z,59.25
2018-05-08T03:08:28.261Z,59.21
2018-05-08T03:10:56.581Z,59.31
2018-05-08T03:13:24.903Z,59.25
2018-05-08T03:15:53.522Z,59.25
2018-05-08T03:18:21.838Z,59.06
2018-05-08T03:20:50.174Z,59.04
2018-05-08T03:23:19.052Z,59.23
2018-05-08T03:25:47.520Z,59.13
2018-05-08T03:28:15.899Z,58.95
2018-05-08T03:30:44.377Z,59.06
2018-05-08T03:33:12.674Z,59.09
2018-05-08T03:35:40.998Z,59.15
2018-05-08T03:38:09.371Z,59.11
2018-05-08T03:40:37.691Z,59.21
2018-05-08T03:43:05.999Z,59.14
2018-05-08T03:45:34.347Z,59.10
2018-05-08T03:48:02.653Z,58.89
2018-05-08T03:50:31.003Z,58.43
2018-05-08T03:52:59.695Z,58.45
2018-05-08T03:55:28.038Z,58.58
2018-05-08T03:57:56.393Z,58.58
2018-05-08T04:00:36.888Z,58.57
2018-05-08T04:03:16.927Z,58.80
2018-05-08T04:05:59.788Z,58.77
2018-05-08T04:08:31.658Z,58.70
2018-05-08T04:11:00.166Z,59.12
2018-05-08T04:13:28.498Z,59.04
2018-05-08T04:15:56.900Z,59.04
2018-05-08T04:18:25.641Z,59.32
2018-05-08T04:20:53.976Z,59.30
2018-05-08T04:23:22.415Z,59.31
2018-05-08T04:25:51.187Z,59.35
2018-05-08T04:28:19.663Z,59.12
2018-05-08T04:30:48.011Z,59.43
2018-05-08T04:33:17.056Z,59.46
2018-05-08T04:35:45.393Z,59.27
2018-05-08T04:38:13.766Z,59.13
2018-05-08T04:40:42.141Z,59.24
2018-05-08T04:43:10.370Z,58.94
2018-05-08T04:45:38.795Z,58.89
2018-05-08T04:48:07.173Z,58.69
2018-05-08T04:50:35.506Z,58.49
2018-05-08T04:53:03.855Z,58.70
2018-05-08T04:55:32.191Z,58.38
2018-05-08T04:58:00.512Z,58.05
2018-05-08T05:00:28.821Z,57.79
2018-05-08T05:02:57.214Z,57.59
2018-05-08T05:05:25.517Z,57.45
2018-05-08T05:07:53.827Z,57.37
2018-05-08T05:10:22.907Z,57.26
2018-05-08T05:12:51.206Z,57.21
2018-05-08T05:15:19.611Z,56.91
2018-05-08T05:17:48.669Z,56.80
2018-05-08T05:20:17.139Z,56.60
2018-05-08T05:22:45.454Z,56.39
2018-05-08T05:25:14.529Z,56.06
2018-05-08T05:27:42.825Z,56.02
2018-05-08T05:30:11.156Z,55.87
2018-05-08T05:32:40.265Z,55.68
2018-05-08T05:35:08.626Z,55.41
2018-05-08T05:37:36.910Z,55.09
2018-05-08T05:40:06.072Z,54.63
2018-05-08T05:42:34.416Z,54.52
2018-05-08T05:45:02.689Z,54.27
2018-05-08T05:47:31.167Z,54.38
2018-05-08T05:49:59.449Z,54.08
2018-05-08T05:52:27.796Z,53.97
2018-05-08T05:54:56.303Z,53.77
2018-05-08T05:57:24.681Z,53.58
2018-05-08T05:59:53.004Z,53.57
2018-05-08T06:02:21.423Z,53.06
2018-05-08T06:04:49.805Z,52.91
2018-05-08T06:07:18.190Z,52.66
2018-05-08T06:09:47.524Z,52.23
2018-05-08T06:12:15.956Z,51.59
2018-05-08T06:14:44.260Z,51.64
2018-05-08T06:17:12.619Z,51.17
2018-05-08T06:19:40.930Z,51.03
2018-05-08T06:22:09.323Z,49.67
2018-05-08T06:24:37.626Z,49.47
2018-05-08T06:27:05.930Z,49.10
2018-05-08T06:29:34.247Z,48.97
2018-05-08T06:32:02.990Z,48.98
2018-05-08T06:34:31.311Z,48.34
2018-05-08T06:36:59.640Z,48.14
2018-05-08T06:39:28.860Z,47.96
2018-05-08T06:41:57.257Z,47.89
2018-05-08T06:44:26.413Z,47.62
2018-05-08T06:46:55.916Z,47.17
2018-05-08T06:49:26.264Z,46.97
2018-05-08T06:51:57.687Z,46.59
2018-05-08T06:54:26.120Z,46.46
2018-05-08T06:56:54.537Z,45.93
2018-05-08T06:59:22.941Z,46.27
2018-05-08T07:01:51.305Z,46.16
2018-05-08T07:04:19.707Z,45.78
2018-05-08T07:06:48.172Z,45.33
2018-05-08T07:09:16.614Z,44.30
2018-05-08T07:11:44.916Z,44.13
2018-05-08T07:14:13.667Z,43.92
2018-05-08T07:16:42.558Z,44.02
2018-05-08T07:19:10.891Z,44.21
2018-05-08T07:21:39.291Z,43.98
2018-05-08T07:24:07.721Z,43.94
2018-05-08T07:26:35.940Z,43.55
2018-05-08T07:29:04.636Z,42.86
2018-05-08T07:31:32.948Z,43.00
2018-05-08T07:34:01.265Z,42.99
2018-05-08T07:36:30.045Z,42.95
2018-05-08T07:38:58.346Z,42.67
2018-05-08T07:41:26.716Z,42.57
2018-05-08T07:43:55.077Z,42.40
2018-05-08T07:46:23.381Z,41.94
2018-05-08T07:48:51.800Z,42.09
2018-05-08T07:51:20.972Z,42.07
2018-05-08T07:53:50.441Z,41.50
2018-05-08T07:56:19.237Z,40.97
2018-05-08T07:58:49.049Z,40.68
2018-05-08T08:01:17.440Z,40.66
2018-05-08T08:03:45.914Z,40.74
2018-05-08T08:06:14.419Z,40.22
2018-05-08T08:08:42.757Z,40.14
2018-05-08T08:11:11.144Z,39.49
2018-05-08T08:13:39.545Z,39.82
2018-05-08T08:16:07.923Z,40.20
2018-05-08T08:18:36.334Z,40.26
2018-05-08T08:21:05.439Z,40.06
2018-05-08T08:23:33.773Z,39.50
2018-05-08T08:26:02.095Z,39.27
2018-05-08T08:28:31.293Z,39.46
2018-05-08T08:30:59.584Z,38.97
2018-05-08T08:33:27.882Z,38.50
2018-05-08T08:35:56.592Z,38.51
2018-05-08T08:38:24.953Z,37.86
2018-05-08T08:40:53.305Z,37.72
2018-05-08T08:43:22.422Z,37.41
2018-05-08T08:45:50.762Z,36.75
2018-05-08T08:48:19.153Z,36.85
2018-05-08T08:50:47.668Z,36.64
2018-05-08T08:53:16.101Z,36.72
2018-05-08T08:55:44.491Z,36.50
2018-05-08T08:58:12.872Z,35.80
2018-05-08T09:00:41.237Z,35.99
2018-05-08T09:03:09.513Z,36.09
2018-05-08T09:05:38.842Z,35.91
2018-05-08T09:08:07.171Z,36.09
2018-05-08T09:10:35.477Z,35.63
2018-05-08T09:13:03.804Z,35.84
2018-05-08T09:15:32.121Z,35.18
2018-05-08T09:18:00.452Z,35.07
2018-05-08T09:20:28.786Z,34.27
2018-05-08T09:22:57.115Z,33.86
2018-05-08T09:25:25.467Z,33.65
2018-05-08T09:27:53.784Z,33.49
2018-05-08T09:30:22.183Z,31.68
2018-05-08T09:32:50.716Z,31.49
2018-05-08T09:35:19.065Z,29.74
2018-05-08T09:37:47.537Z,28.83
2018-05-08T09:40:15.960Z,29.17
2018-05-08T09:42:45.146Z,28.84
2018-05-08T09:45:13.476Z,28.63
2018-05-08T09:47:41.778Z,28.52
2018-05-08T09:50:11.483Z,27.59
2018-05-08T09:52:39.975Z,27.04
2018-05-08T09:55:08.301Z,27.33
2018-05-08T09:57:37.327Z,25.85
2018-05-08T10:00:05.627Z,25.52
2018-05-08T10:02:33.934Z,24.95
2018-05-08T10:05:02.465Z,25.71
2018-05-08T10:07:30.766Z,24.76
2018-05-08T10:09:59.138Z,24.78
2018-05-08T10:12:28.082Z,25.78
2018-05-08T10:14:56.433Z,25.61
2018-05-08T10:17:24.836Z,24.80
2018-05-08T10:19:53.215Z,24.59
2018-05-08T10:22:21.548Z,24.25
2018-05-08T10:24:49.910Z,24.62
2018-05-08T10:27:18.516Z,24.39
2018-05-08T10:29:46.936Z,25.44
2018-05-08T10:32:15.312Z,25.40
2018-05-08T10:34:43.626Z,25.53
2018-05-08T10:37:11.989Z,25.54
2018-05-08T10:39:40.357Z,25.05
2018-05-08T10:42:09.442Z,26.22
2018-05-08T10:44:37.738Z,25.80
2018-05-08T10:47:06.157Z,25.38
2018-05-08T10:49:35.520Z,25.06
2018-05-08T10:52:03.893Z,24.84
2018-05-08T10:54:32.983Z,24.55
2018-05-08T10:57:01.389Z,23.91
2018-05-08T10:59:29.736Z,23.99
2018-05-08T11:01:58.069Z,23.83
2018-05-08T11:04:26.458Z,24.41
2018-05-08T11:06:54.780Z,23.90
2018-05-08T11:09:23.114Z,24.08
2018-05-08T11:11:51.562Z,23.55
2018-05-08T11:16:55.399Z,23.22
2018-05-08T11:19:23.792Z,23.46
2018-05-08T11:21:52.341Z,23.84
2018-05-08T11:24:21.131Z,24.20
2018-05-08T11:26:49.603Z,23.69
2018-05-08T11:29:17.873Z,24.05
2018-05-08T11:31:46.354Z,24.37
2018-05-08T11:34:14.645Z,24.11
2018-05-08T11:36:43.577Z,24.25
2018-05-08T11:39:12.352Z,23.50
2018-05-08T11:41:40.578Z,23.01
2018-05-08T11:44:08.881Z,24.02
2018-05-08T11:46:37.234Z,24.25
2018-05-08T11:49:05.611Z,24.04
2018-05-08T11:51:33.911Z,23.89
2018-05-08T11:54:02.372Z,23.23
2018-05-08T11:56:30.773Z,23.48
2018-05-08T11:58:59.136Z,23.64
2018-05-08T12:01:27.622Z,23.57
2018-05-08T12:03:56.070Z,23.50
2018-05-08T12:06:24.490Z,23.00
2018-05-08T12:08:53.612Z,22.45
2018-05-08T12:11:22.028Z,23.18
2018-05-08T12:13:50.388Z,22.99
2018-05-08T12:16:18.887Z,23.58
2018-05-08T12:18:47.203Z,24.13
2018-05-08T12:21:15.573Z,24.35
2018-05-08T12:23:43.878Z,24.68
2018-05-08T12:26:12.198Z,24.57
2018-05-08T12:28:40.513Z,24.02
2018-05-08T12:31:09.236Z,24.73
2018-05-08T12:33:37.553Z,24.46
2018-05-08T12:36:05.894Z,24.42
2018-05-08T12:38:34.225Z,23.63
2018-05-08T12:41:02.565Z,23.70
2018-05-08T12:43:30.922Z,23.61
2018-05-08T12:46:00.155Z,23.85
2018-05-08T12:48:28.474Z,23.45
2018-05-08T12:50:56.872Z,22.33
2018-05-08T12:53:25.763Z,22.32
2018-05-08T12:55:54.149Z,22.86
2018-05-08T12:58:22.571Z,23.15
2018-05-08T13:00:51.021Z,22.80
2018-05-08T13:03:19.381Z,21.54
2018-05-08T13:05:47.777Z,21.58
2018-05-08T13:08:17.632Z,21.92
2018-05-08T13:10:46.045Z,21.82
2018-05-08T13:13:14.421Z,21.46
2018-05-08T13:15:43.899Z,21.90
2018-05-08T13:18:12.432Z,22.80
2018-05-08T13:20:40.720Z,22.77
2018-05-08T13:23:09.473Z,22.49
2018-05-08T13:25:38.118Z,22.60
2018-05-08T13:28:06.447Z,22.30
2018-05-08T13:30:34.891Z,22.40
2018-05-08T13:33:03.227Z,22.82
2018-05-08T13:35:33.413Z,22.82
2018-05-08T13:38:02.950Z,23.08
2018-05-08T13:40:32.883Z,23.48
2018-05-08T13:43:01.417Z,23.48
2018-05-08T13:45:29.875Z,23.05
2018-05-08T13:47:58.409Z,22.99
2018-05-08T13:50:26.788Z,22.95
2018-05-08T13:52:55.592Z,23.39
2018-05-08T13:55:24.040Z,23.98
2018-05-08T13:57:52.403Z,25.95
2018-05-08T14:00:21.203Z,27.03
2018-05-08T14:02:49.593Z,28.00
2018-05-08T14:05:17.971Z,28.20
2018-05-08T14:07:46.341Z,27.98
2018-05-08T14:10:14.638Z,27.55
2018-05-08T14:12:42.994Z,27.96
2018-05-08T14:15:11.945Z,27.98
2018-05-08T14:17:40.263Z,29.12
2018-05-08T14:20:08.643Z,28.50
2018-05-08T14:22:36.981Z,28.61
2018-05-08T14:25:05.297Z,29.73
2018-05-08T14:27:33.614Z,29.55
2018-05-08T14:30:02.048Z,30.04
2018-05-08T14:32:30.354Z,30.54
2018-05-08T14:34:58.698Z,29.41
2018-05-08T14:37:27.078Z,29.85
2018-05-08T14:39:55.465Z,30.07
2018-05-08T14:42:24.016Z,30.57
2018-05-08T14:44:52.584Z,31.19
2018-05-08T14:47:21.109Z,31.35
2018-05-08T14:49:49.492Z,30.21
2018-05-08T14:52:18.814Z,30.56
2018-05-08T14:54:47.263Z,31.35
2018-05-08T14:57:15.777Z,30.91
2018-05-08T14:59:44.141Z,30.72
2018-05-08T15:02:12.499Z,30.86
2018-05-08T15:04:40.860Z,31.73
2018-05-08T15:07:09.470Z,32.61
2018-05-08T15:09:37.763Z,32.18
2018-05-08T15:12:06.075Z,31.57
2018-05-08T15:14:34.421Z,31.63
2018-05-08T15:17:02.760Z,30.21
2018-05-08T15:19:31.564Z,29.64
2018-05-08T15:21:59.951Z,30.29
2018-05-08T15:24:28.277Z,31.60
2018-05-08T15:26:56.620Z,31.48
2018-05-08T15:29:25.022Z,31.64
2018-05-08T15:31:53.437Z,31.26
2018-05-08T15:34:21.951Z,30.93
2018-05-08T15:36:50.346Z,31.18
2018-05-08T15:39:19.010Z,30.84
2018-05-08T15:41:47.487Z,32.08
2018-05-08T15:44:16.854Z,31.80
2018-05-08T15:46:45.269Z,31.46
2018-05-08T15:49:13.661Z,31.23
2018-05-08T15:51:42.158Z,31.78
2018-05-08T15:54:10.393Z,32.07
2018-05-08T15:56:38.689Z,31.61
2018-05-08T15:59:07.411Z,32.71
2018-05-08T16:01:35.772Z,32.86
2018-05-08T16:04:04.088Z,33.22
2018-05-08T16:06:33.229Z,35.20
2018-05-08T16:09:01.539Z,36.70
2018-05-08T16:11:29.874Z,36.86
2018-05-08T16:13:58.184Z,38.14
2018-05-08T16:16:26.489Z,38.91
2018-05-08T16:18:54.906Z,39.25
2018-05-08T16:21:24.130Z,39.80
2018-05-08T16:23:52.454Z,39.64
2018-05-08T16:26:20.881Z,40.04
2018-05-08T16:28:49.766Z,40.56
2018-05-08T16:31:18.252Z,40.66
2018-05-08T16:33:46.839Z,41.03
2018-05-08T16:36:16.395Z,41.24
2018-05-08T16:38:44.714Z,41.35
2018-05-08T16:41:13.047Z,42.16
2018-05-08T16:43:43.035Z,42.86
2018-05-08T16:46:11.367Z,42.74
2018-05-08T16:48:39.674Z,42.85
2018-05-08T16:51:08.026Z,43.21
2018-05-08T16:53:36.346Z,43.56
2018-05-08T16:56:04.669Z,43.53
2018-05-08T16:58:33.039Z,43.68
2018-05-08T17:01:01.385Z,43.77
2018-05-08T17:03:29.780Z,44.06
2018-05-08T17:05:58.226Z,44.25
2018-05-08T17:08:26.613Z,44.62
2018-05-08T17:10:55.090Z,44.99
2018-05-08T17:13:24.699Z,45.37
2018-05-08T17:15:53.238Z,45.72
2018-05-08T17:18:21.584Z,45.96
2018-05-08T17:20:50.305Z,45.81
2018-05-08T17:23:18.754Z,46.16
2018-05-08T17:25:47.263Z,45.90
2018-05-08T17:28:16.273Z,46.50
2018-05-08T17:30:44.578Z,46.68
2018-05-08T17:33:12.883Z,47.25
2018-05-08T17:35:41.876Z,46.96
2018-05-08T17:38:10.170Z,47.05
2018-05-08T17:40:38.500Z,47.34
2018-05-08T17:43:06.860Z,47.32
2018-05-08T17:45:35.186Z,47.16
2018-05-08T17:48:03.514Z,47.28
2018-05-08T17:50:32.410Z,47.50
2018-05-08T17:53:00.761Z,47.70
2018-05-08T17:55:29.122Z,47.98
2018-05-08T17:57:58.287Z,47.75
2018-05-08T18:00:26.707Z,46.87
2018-05-08T18:02:55.729Z,46.48
2018-05-08T18:05:24.330Z,46.46
2018-05-08T18:07:52.832Z,46.43
2018-05-08T18:10:21.141Z,46.34
2018-05-08T18:12:49.852Z,47.01
2018-05-08T18:15:18.170Z,47.48
2018-05-08T18:17:46.593Z,48.44
2018-05-08T18:20:16.816Z,48.83
2018-05-08T18:22:49.322Z,48.92
2018-05-08T18:25:20.459Z,48.85
2018-05-08T18:27:51.308Z,49.50
2018-05-08T18:30:23.209Z,49.74
2018-05-08T18:32:53.391Z,50.24
2018-05-08T18:35:21.748Z,50.91
2018-05-08T18:37:51.562Z,51.06
2018-05-08T18:40:19.916Z,50.99
2018-05-08T18:42:49.425Z,51.11
2018-05-08T18:45:17.783Z,51.00
2018-05-08T18:47:48.618Z,51.07
2018-05-08T18:50:17.083Z,51.16
2018-05-08T18:52:45.696Z,51.22
2018-05-08T18:55:14.027Z,51.27
2018-05-08T18:57:42.436Z,51.60
2018-05-08T19:00:16.800Z,51.57
2018-05-08T19:02:45.261Z,51.60
2018-05-08T19:05:15.144Z,51.80
2018-05-08T19:07:43.626Z,51.96
2018-05-08T19:10:11.980Z,52.20
2018-05-08T19:12:40.305Z,52.00
2018-05-08T19:15:14.367Z,52.57
2018-05-08T19:17:42.691Z,52.39
2018-05-08T19:20:11.005Z,52.50
2018-05-08T19:22:39.364Z,52.32
2018-05-08T19:25:07.721Z,52.47
2018-05-08T19:27:36.417Z,52.51
2018-05-08T19:30:11.793Z,52.78
2018-05-08T19:32:40.200Z,52.76
2018-05-08T19:35:14.874Z,52.71
2018-05-08T19:37:48.747Z,52.83
2018-05-08T19:40:17.562Z,52.67
2018-05-08T19:42:45.930Z,52.95
2018-05-08T19:45:14.356Z,52.74
2018-05-08T19:47:42.849Z,52.71
2018-05-08T19:50:11.174Z,52.87
2018-05-08T19:52:39.532Z,52.85
2018-05-08T19:55:08.704Z,52.88
2018-05-08T19:57:37.387Z,53.17
2018-05-08T20:00:07.498Z,53.31
2018-05-08T21:18:35.126Z,52.31
2018-05-08T21:21:03.540Z,52.17
2018-05-08T21:23:32.402Z,52.16
2018-05-08T21:26:01.804Z,51.90
2018-05-08T21:28:35.967Z,51.76
2018-05-08T21:31:10.373Z,51.70
2018-05-08T21:33:39.954Z,51.62
2018-05-08T21:36:08.344Z,51.64
2018-05-08T21:38:36.752Z,51.52
2018-05-08T21:41:05.702Z,51.49
2018-05-08T21:43:34.045Z,51.90
2018-05-08T21:46:02.663Z,51.58
2018-05-08T21:48:30.996Z,51.86
2018-05-08T21:50:59.346Z,52.01
2018-05-08T21:53:28.405Z,51.84
2018-05-08T21:55:56.966Z,51.71
2018-05-08T21:58:25.343Z,51.74
2018-05-08T22:00:54.487Z,51.98
2018-05-08T22:03:23.518Z,52.02
2018-05-08T22:05:51.882Z,51.84
2018-05-08T22:08:20.407Z,52.13
2018-05-08T22:10:48.772Z,52.35
2018-05-08T22:13:17.087Z,52.10
2018-05-08T22:15:46.472Z,52.04
2018-05-08T22:18:14.720Z,52.42
2018-05-08T22:20:43.036Z,52.56
2018-05-08T22:23:11.541Z,52.62
2018-05-08T22:25:39.862Z,52.74
2018-05-08T22:28:08.246Z,52.72
2018-05-08T22:30:36.583Z,52.95
2018-05-08T22:33:04.890Z,53.03
2018-05-08T22:35:33.240Z,53.12
2018-05-08T22:38:01.818Z,53.28
2018-05-08T22:40:30.201Z,53.00
2018-05-08T22:42:58.700Z,53.54
2018-05-08T22:45:27.241Z,53.39
2018-05-08T22:47:55.636Z,53.52
2018-05-08T22:50:24.212Z,53.48
2018-05-08T22:52:53.444Z,53.58
2018-05-08T22:55:21.791Z,54.02
2018-05-08T22:57:50.078Z,54.04
2018-05-08T23:00:19.359Z,53.96
2018-05-08T23:02:47.663Z,54.08
2018-05-08T23:05:15.985Z,54.17
2018-05-08T23:07:44.319Z,54.22
2018-05-08T23:10:12.700Z,54.33
2018-05-08T23:12:41.002Z,54.33
2018-05-08T23:15:09.941Z,54.55
2018-05-08T23:17:38.242Z,54.46
2018-05-08T23:20:06.549Z,54.79
2018-05-08T23:22:34.887Z,54.91
2018-05-08T23:25:03.219Z,54.79
2018-05-08T23:27:31.629Z,54.87
2018-05-08T23:29:59.976Z,54.94
2018-05-08T23:32:28.310Z,55.26
2018-05-08T23:34:56.806Z,55.36
2018-05-08T23:37:26.134Z,55.19
2018-05-08T23:39:54.649Z,55.27
2018-05-08T23:42:23.105Z,55.13
2018-05-08T23:44:51.777Z,55.56
2018-05-08T23:47:20.137Z,55.30
2018-05-08T23:49:48.454Z,55.44
2018-05-08T23:52:16.768Z,55.50
2018-05-08T23:54:45.088Z,55.53
2018-05-08T23:57:13.470Z,55.63
2018-05-08T23:59:41.815Z,55.78
